• Join FlightAware (Why Join?)
  • Login
  • US Flag 
10:16PM EDT


 

Airport Tracker/Info


-or-


 

Live Flight TrackerFlight Track Log ✈ N683DA ✈ 10-Jun-2012 ✈ KDEN - KATL

Flight Track Log - Related Links

Times and Time Zones

All times are in EDT time to prevent confusion due to time zone crossing. See the N683DA flight status page for this flight to view local times or setup timezone preferences in your user account.

Time Position Orientation Groundspeed Altitude Reporting Facility
EDT Latitude Longitude Course Direction KTS MPH feet Rate Location/Type
11:18AM 39.8667 -104.5833 108° East 177 204 7,000  Level Denver TRACON
11:19AM 39.8500 -104.5167 101° East 255 293 8,700 1,500 Climbing Denver TRACON
11:20AM 39.8333 -104.4000 103° East 307 353 10,100 1,500 Climbing Denver TRACON
11:21AM 39.8147 -104.2958 100° East 328 377 11,700 2,100 Climbing Denver Center
11:22AM 39.7967 -104.1625 100° East 344 396 14,400 2,220 Climbing Denver Center
11:23AM 39.7783 -104.0275 99° East 375 432 16,400 2,100 Climbing Denver Center
11:24AM 39.7589 -103.8683 100° East 407 468 18,800 2,280 Climbing Denver Center
11:25AM 39.7389 -103.7144 96° East 411 473 21,200 2,100 Climbing Denver Center
11:26AM 39.7269 -103.5622 96° East 421 484 23,200 1,680 Climbing Denver Center
11:27AM 39.7139 -103.4008 96° East 438 504 24,800 1,680 Climbing Denver Center
11:28AM 39.6997 -103.2361 103° East 449 517 26,700 1,740 Climbing Denver Center
11:29AM 39.6658 -103.0489 107° East 452 520 28,500 1,440 Climbing Denver Center
11:30AM 39.6283 -102.8872 114° Southeast 463 533 29,700 1,080 Climbing Denver Center
11:31AM 39.5733 -102.7275 113° Southeast 477 549 30,800 960 Climbing Denver Center
11:32AM 39.5194 -102.5658 114° Southeast 484 557 31,800 1,320 Climbing Denver Center
11:33AM 39.4647 -102.4036 114° Southeast 486 559 33,600 1,620 Climbing Denver Center
11:34AM 39.4042 -102.2242 114° Southeast 479 551 35,200 1,320 Climbing Denver Center
11:35AM 39.3525 -102.0767 114° Southeast 474 545 36,400 840 Climbing Denver Center
11:36AM 39.2933 -101.9069 114° Southeast 470 541 37,000 240 Climbing Denver Center
11:37AM 39.2419 -101.7592 114° Southeast 471 542 37,000  Level Denver Center
11:38AM 39.1822 -101.5836 114° Southeast 475 547 37,000  Level Denver Center
11:39AM 39.1289 -101.4319 114° Southeast 482 555 37,000  Level Denver Center
11:40AM 39.0678 -101.2567 114° Southeast 482 555 37,000  Level Denver Center
11:41AM 39.0153 -101.1075 115° Southeast 479 551 37,000  Level Denver Center
11:43AM 38.9542 -100.9356 115° Southeast 475 547 37,000  Level Denver Center
11:44AM 38.9008 -100.7861 114° Southeast 478 550 37,000  Level Denver Center
11:45AM 38.8406 -100.6139 115° Southeast 475 547 37,000  Level Denver Center
11:46AM 38.7872 -100.4656 115° Southeast 476 548 37,000  Level Denver Center
11:47AM 38.7244 -100.2928 115° Southeast 478 550 37,000  Level Denver Center
11:48AM 38.6722 -100.1478 115° Southeast 472 543 37,000  Level Denver Center
11:49AM 38.6103 -99.9794 114° Southeast 468 539 37,000  Level Denver Center
11:50AM 38.5486 -99.8025 115° Southeast 479 551 37,000  Level Kansas City Center
11:51AM 38.4983 -99.6664 116° Southeast 479 551 37,000  Level Kansas City Center
11:52AM 38.4344 -99.5000 117° Southeast 479 551 37,000  Level Kansas City Center
11:53AM 38.3814 -99.3694 114° Southeast 474 545 37,000  Level Kansas City Center
11:54AM 38.3272 -99.2175 115° Southeast 474 545 37,000  Level Kansas City Center
11:55AM 38.2725 -99.0686 116° Southeast 474 545 37,000  Level Kansas City Center
11:56AM 38.2156 -98.9172 117° Southeast 469 540 37,000  Level Kansas City Center
11:57AM 38.1561 -98.7711 116° Southeast 469 540 37,000  Level Kansas City Center
11:58AM 38.0989 -98.6200 116° Southeast 469 540 37,000  Level Kansas City Center
11:59AM 38.0433 -98.4744 116° Southeast 469 540 37,000  Level Kansas City Center
12:00PM 37.9856 -98.3264 116° Southeast 464 534 37,000  Level Kansas City Center
12:01PM 37.9297 -98.1814 116° Southeast 464 534 37,000  Level Kansas City Center
12:02PM 37.8658 -98.0153 117° Southeast 473 544 37,000  Level Kansas City Center
12:03PM 37.8094 -97.8733 117° Southeast 468 539 37,000  Level Kansas City Center
12:04PM 37.7508 -97.7261 116° Southeast 463 533 37,000  Level Kansas City Center
12:05PM 37.6922 -97.5767 117° Southeast 466 536 37,000  Level Kansas City Center
12:06PM 37.6314 -97.4272 117° Southeast 466 536 37,000  Level Kansas City Center
12:07PM 37.5742 -97.2836 117° Southeast 471 542 37,000  Level Kansas City Center
12:08PM 37.5131 -97.1347 116° Southeast 471 542 37,000  Level Kansas City Center
12:09PM 37.4556 -96.9861 118° Southeast 471 542 37,000  Level Kansas City Center
12:10PM 37.3958 -96.8458 117° Southeast 471 542 37,000  Level Kansas City Center
12:11PM 37.3361 -96.6975 117° Southeast 466 536 37,000  Level Kansas City Center
12:12PM 37.2761 -96.5522 116° Southeast 466 536 37,000  Level Kansas City Center
12:13PM 37.2222 -96.4128 117° Southeast 460 529 37,000  Level Kansas City Center
12:14PM 37.1639 -96.2706 117° Southeast 460 529 37,000  Level Kansas City Center
12:15PM 37.1053 -96.1258 117° Southeast 460 529 37,000  Level Kansas City Center
12:16PM 37.0467 -95.9842 118° Southeast 460 529 37,000  Level Kansas City Center
12:17PM 36.9858 -95.8400 118° Southeast 460 529 37,000  Level Kansas City Center
12:18PM 36.9247 -95.6961 117° Southeast 460 529 37,000  Level Kansas City Center
12:19PM 36.8656 -95.5497 118° Southeast 460 529 37,000  Level Kansas City Center
12:20PM 36.8042 -95.4061 117° Southeast 460 529 37,000  Level Kansas City Center
12:21PM 36.7569 -95.2889 119° Southeast 460 529 37,000  Level Kansas City Center
12:23PM 36.6156 -94.9661 118° Southeast 458 527 37,000  Level Memphis Center
12:24PM 36.5558 -94.8258 119° Southeast 458 527 37,000  Level Memphis Center
12:25PM 36.4922 -94.6856 117° Southeast 463 533 37,000  Level Memphis Center
12:26PM 36.4344 -94.5433 120° Southeast 463 533 37,000  Level Memphis Center
12:27PM 36.3703 -94.4058 117° Southeast 463 533 37,000  Level Memphis Center
12:28PM 36.3122 -94.2667 118° Southeast 468 539 37,000  Level Memphis Center
12:29PM 36.2517 -94.1272 110° East 462 532 37,000  Level Memphis Center
12:30PM 36.2061 -93.9761 109° East 462 532 37,000  Level Memphis Center
12:31PM 36.1608 -93.8147 110° East 462 532 37,000  Level Memphis Center
12:32PM 36.1189 -93.6689 109° East 457 526 37,000  Level Memphis Center
12:33PM 36.0769 -93.5158 108° East 457 526 37,000  Level Memphis Center
12:34PM 36.0369 -93.3681 109° East 452 520 37,000  Level Memphis Center
12:35PM 35.9944 -93.2200 110° East 452 520 37,000  Level Memphis Center
12:36PM 35.9519 -93.0725 110° East 452 520 37,000  Level Memphis Center
12:37PM 35.9092 -92.9275 109° East 447 514 37,000  Level Memphis Center
12:38PM 35.8683 -92.7803 110° East 447 514 37,000  Level Memphis Center
12:39PM 35.8292 -92.6486 110° East 452 520 37,000  Level Memphis Center
12:40PM 35.7858 -92.5014 110° East 452 520 37,000  Level Memphis Center
12:41PM 35.7422 -92.3547 110° East 452 520 37,000  Level Memphis Center
12:42PM 35.6986 -92.2053 110° East 452 520 37,000  Level Memphis Center
12:43PM 35.6550 -92.0611 109° East 452 520 37,000  Level Memphis Center
12:44PM 35.6131 -91.9122 110° East 452 520 37,000  Level Memphis Center
12:45PM 35.5689 -91.7658 111° Southeast 452 520 37,000  Level Memphis Center
12:46PM 35.5225 -91.6197 110° East 452 520 37,000  Level Memphis Center
12:47PM 35.4781 -91.4739 110° East 452 520 37,000  Level Memphis Center
12:48PM 35.4356 -91.3281 111° Southeast 452 520 37,000  Level Memphis Center
12:49PM 35.3886 -91.1744 111° Southeast 457 526 37,000  Level Memphis Center
12:50PM 35.3456 -91.0342 111° Southeast 449 517 37,000  Level Memphis Center
12:51PM 35.3003 -90.8861 111° Southeast 454 522 37,000  Level Memphis Center
12:52PM 35.2531 -90.7358 110° East 460 529 37,000  Level Memphis Center
12:53PM 35.2094 -90.5883 111° Southeast 460 529 37,000  Level Memphis Center
12:54PM 35.1575 -90.4256 111° Southeast 465 535 37,000  Level Memphis Center
12:55PM 35.1094 -90.2758 111° Southeast 470 541 37,000  Level Memphis Center
12:56PM 35.0633 -90.1289 109° East 470 541 37,000  Level Memphis Center
12:57PM 35.0214 -89.9817 99° East 470 541 37,000  Level Memphis Center
12:58PM 35.0000 -89.8222 100° East 470 541 37,000  Level Memphis Center
12:59PM 34.9783 -89.6703 102° East 489 563 37,000  Level Memphis Center
01:00PM 34.9503 -89.5083 101° East 489 563 37,000  Level Memphis Center
01:01PM 34.9239 -89.3492 101° East 484 557 37,000  Level Memphis Center
01:02PM 34.8997 -89.1922 101° East 484 557 37,000  Level Memphis Center
01:03PM 34.8731 -89.0308 100° East 484 557 37,000  Level Memphis Center
01:04PM 34.8481 -88.8592 101° East 484 557 37,000  Level Memphis Center
01:05PM 34.8231 -88.6975 101° East 484 557 37,000 -60 Level Memphis Center
01:06PM 34.7978 -88.5414 101° East 484 557 36,900 -480 Descending Memphis Center
01:07PM 34.7750 -88.4053 100° East 477 549 36,100 -960 Descending Memphis Center
01:08PM 34.7492 -88.2314 100° East 470 541 35,000 -1,200 Descending Memphis Center
01:09PM 34.7231 -88.0603 101° East 490 564 33,800 -1,020 Descending Memphis Center
01:10PM 34.6969 -87.8969 102° East 496 571 33,000 -420 Descending Memphis Center
01:11PM 34.6686 -87.7336 101° East 491 565 33,000 -480 Level Memphis Center
01:12PM 34.6447 -87.5878 102° East 491 565 32,100 -720 Descending Memphis Center
01:14PM 34.5872 -87.2533 103° East 493 567 31,000 -420 Descending Atlanta Center
01:15PM 34.5558 -87.0906 104° East 493 567 31,000  Level Atlanta Center
01:16PM 34.5258 -86.9433 103° East 493 567 31,000 -60 Level Atlanta Center
01:17PM 34.4944 -86.7758 106° East 493 567 30,900 -600 Descending Atlanta Center
01:18PM 34.4561 -86.6108 105° East 493 567 29,900 -1,140 Descending Atlanta Center
01:19PM 34.4197 -86.4486 105° East 498 573 28,700 -1,260 Descending Atlanta Center
01:20PM 34.3853 -86.2917 106° East 492 566 27,400 -1,500 Descending Atlanta Center
01:21PM 34.3483 -86.1347 105° East 487 560 25,700 -1,440 Descending Atlanta Center
01:22PM 34.3114 -85.9678 107° East 472 543 24,500 -1,260 Descending Atlanta Center
01:23PM 34.2739 -85.8211 104° East 467 537 23,300 -1,440 Descending Atlanta Center
01:24PM 34.2486 -85.6950 106° East 440 506 21,700 -2,040 Descending Atlanta Center
01:25PM 34.2108 -85.5408 106° East 435 501 19,300 -2,400 Descending Atlanta Center
01:26PM 34.1792 -85.4072 105° East 429 494 17,000 -2,340 Descending Atlanta Center
01:27PM 34.1492 -85.2764 106° East 411 473 14,700 -2,040 Descending Atlanta Center
01:28PM 34.1189 -85.1528 105° East 400 460 13,000 -900 Descending Atlanta Center
01:29PM 34.0950 -85.0447 128° Southeast 365 420 13,000 -180 Level Atlanta Center
01:30PM 34.0433 -84.9639 141° Southeast 311 358 12,700 -900 Descending Atlanta Center
01:31PM 33.9792 -84.9006 184° South 298 343 11,200 -1,500 Descending Atlanta Center
01:32PM 33.9039 -84.9072 186° South 266 306 9,800 -1,140 Descending Atlanta Center
01:33PM 33.8286 -84.9164 187° South 266 306 9,000 -600 Descending Atlanta Center
01:34PM 33.7597 -84.9258 175° South 262 302 8,600 -900 Descending Atlanta Center
01:35PM 33.7033 -84.9203 151° Southeast 227 261 7,300 -840 Descending Atlanta Center
01:36PM 33.6472 -84.8822 105° East 217 250 7,000 -300 Descending Atlanta Center
01:37PM 33.6311 -84.8097 89° East 209 241 6,800 -840 Descending Atlanta Center
01:38PM 33.6333 -84.7000 90° East 207 238 5,100 -1,200 Descending Atlanta TRACON
01:39PM 33.6333 -84.6500 90° East 190 219 4,100 -960 Descending Atlanta TRACON
01:40PM 33.6333 -84.5833 90° East 178 205 3,200 -960 Descending Atlanta TRACON
01:41PM 33.6333 -84.5333 90° East 150 173 2,200 -840 Descending Atlanta TRACON
01:42PM 33.6333 -84.4833 90° East 127 146 1,600 -660 Descending Atlanta TRACON
01:49PM 33.6333 -84.4167 290° West  Level FlightAware Approximate
01:50PM 33.6744 -84.5552 290° West  Level Estimated